KILG/ILG METAR and TAF weather

Enter ICAO airport designator
Station Type Date Time Source
KILG METAR 2019/02/17 15:51 UTC NOAA

KILG 171551Z 09009KT 10SM CLR 01/M09 A3009 RMK AO2 PRESFR SLP189 T00111089


Station Type Date Time Source
KILG Decoded METAR 2019/02/17 15:51 UTC NOAA

WILMINGTON NEW CASTLE CO, DE, United States (KILG) 39-40N 075-36W 28M
Feb 17, 2019 - 10:51 AM EST / 2019.02.17 1551 UTC
Wind: from the E (090 degrees) at 10 MPH (9 KT):0
Visibility: 10 mile(s):0
Sky conditions: clear
Temperature: 34.0 F (1.1 C)
Windchill: 26 F (-3 C):1
Dew Point: 16.0 F (-8.9 C)
Relative Humidity: 47%
Pressure (altimeter): 30.09 in. Hg (1018 hPa)
Pressure tendency: falling rapidly
ob: KILG 171551Z 09009KT 10SM CLR 01/M09 A3009 RMK AO2 PRESFR SLP189 T00111089
cycle: 16

Station Type Date Time Source
KILG TAF 2019/02/17 12:28 UTC NOAA

TAF KILG 171126Z 1712/1812 VRB04KT P6SM FEW200
FM171800 VRB04KT P6SM SCT070 BKN200
FM180100 13007KT 5SM -RA OVC020
FM180300 12005KT 2SM -RA BR OVC010
FM180600 VRB04KT 2SM -RA BR OVC008
FM181100 VRB03KT 6SM BR BKN004


Example: see airport list